Data for 12/08/2017

Time Sea-Level Adjusted Pressure Absolute Pressure Temperature Relative Humidity Dew Point   
(mb) (inHg) (mb) (inHg) (C) (F) (%) (C) (F)
00:05 1034 30.53 863 25.48 -6.4 20.5 77 -9.7 14.5
00:10 1034 30.53 863 25.48 -6.2 20.8 76 -9.9 14.3
00:15 1034 30.53 863 25.48 -6 21.2 76 -9.7 14.6
00:20 1034 30.53 863 25.48 -5.7 21.7 74 -9.6 14.8
00:25 1033 30.5 863 25.48 -5.7 21.8 74 -9.6 14.7
00:30 1033 30.5 863 25.48 -5.8 21.5 74 -9.7 14.5
00:35 1033 30.5 863 25.48 -5.9 21.3 75 -9.7 14.5
00:40 1033 30.5 863 25.48 -6 21.2 73 -10.1 13.9
00:45 1033 30.5 863 25.48 -6.6 20.2 77 -9.9 14.2
00:50 1033 30.5 863 25.48 -7.1 19.3 81 -9.9 14.2
00:55 1033 30.5 863 25.48 -7.1 19.2 79 -10.1 13.8
01:00 1033 30.5 863 25.48 -7 19.4 79 -10 14
01:05 1033 30.5 863 25.48 -6.6 20.1 78 -9.8 14.3
01:10 1033 30.5 863 25.48 -6.4 20.5 77 -9.9 14.2
01:15 1033 30.5 863 25.48 -6.2 20.9 76 -9.7 14.5
01:20 1033 30.5 863 25.48 -6.1 21 76 -9.6 14.7
01:25 1033 30.5 863 25.48 -6.5 20.4 77 -9.9 14.2
01:30 1033 30.5 863 25.48 -6.2 20.9 75 -9.9 14.3
01:35 1033 30.5 862 25.45 -5.7 21.7 76 -9.2 15.4
01:40 1033 30.5 862 25.45 -5.7 21.8 77 -9 15.7
01:45 1033 30.5 862 25.45 -5.6 21.9 78 -8.8 16.1
01:50 1033 30.5 862 25.45 -5.4 22.4 76 -8.9 16
01:55 1033 30.5 863 25.48 -5.3 22.4 75 -9.1 15.6
02:00 1033 30.5 863 25.48 -6.1 21.1 79 -9.2 15.4
02:05 1033 30.5 863 25.48 -6.3 20.6 81 -9 15.7
02:10 1033 30.5 863 25.48 -6 21.2 79 -9 15.8
02:15 1033 30.5 863 25.48 -6.5 20.3 81 -9.3 15.3
02:20 1033 30.5 863 25.48 -6.8 19.8 82 -9.4 15.1
02:25 1033 30.5 863 25.48 -6.6 20.2 81 -9.4 15.1
02:30 1033 30.5 863 25.48 -5.9 21.5 77 -9.3 15.2
02:35 1033 30.5 863 25.48 -6.1 21 78 -9.4 15.1
02:40 1033 30.5 863 25.48 -6.9 19.5 82 -9.5 14.9
02:45 1033 30.5 863 25.48 -6.8 19.7 80 -9.7 14.5
02:50 1033 30.5 862 25.45 -6.6 20.1 78 -9.8 14.4
02:55 1033 30.5 862 25.45 -6.4 20.4 78 -9.7 14.5
03:00 1033 30.5 863 25.48 -5.9 21.3 75 -9.6 14.6
03:05 1033 30.5 862 25.45 -5.6 22 75 -9.3 15.3
03:10 1033 30.5 862 25.45 -5.1 22.8 74 -9.1 15.6
03:15 1033 30.5 862 25.45 -5.1 22.9 74 -9 15.7
03:20 1033 30.5 862 25.45 -5.2 22.7 74 -9.2 15.5
03:25 1033 30.5 862 25.45 -5.2 22.6 72 -9.4 15
03:30 1033 30.5 862 25.45 -5.9 21.3 75 -9.6 14.6
03:35 1033 30.5 862 25.45 -7.1 19.3 79 -10.1 13.9
03:40 1033 30.5 862 25.45 -7.2 19.1 83 -9.7 14.6
03:45 1033 30.5 862 25.45 -6.7 19.9 81 -9.4 15.1
03:50 1033 30.5 862 25.45 -6.1 21 78 -9.4 15.2
03:55 1033 30.5 862 25.45 -5.8 21.6 77 -9.2 15.4
04:00 1033 30.5 862 25.45 -5.6 21.9 77 -9.1 15.6
04:05 1033 30.5 862 25.45 -5.7 21.8 76 -9.3 15.3
04:10 1033 30.5 862 25.45 -6.3 20.6 78 -9.5 14.9
04:15 1033 30.5 862 25.45 -7.1 19.3 81 -9.8 14.3
04:20 1033 30.5 862 25.45 -7.4 18.8 83 -9.7 14.5
04:25 1033 30.5 862 25.45 -7.2 19.1 84 -9.5 15
04:30 1033 30.5 862 25.45 -6.8 19.7 82 -9.4 15.1
04:35 1033 30.5 862 25.45 -6.6 20 82 -9.2 15.5
04:40 1033 30.5 862 25.45 -6 21.3 79 -9.1 15.6
04:45 1033 30.5 862 25.45 -5.5 22 76 -9.1 15.6
04:50 1033 30.5 862 25.45 -5.8 21.5 79 -8.9 16
04:55 1033 30.5 862 25.45 -5.9 21.4 79 -9.1 15.7
05:00 1033 30.5 862 25.45 -6.5 20.4 83 -8.9 16
05:05 1033 30.5 862 25.45 -6.4 20.5 83 -8.9 16
05:10 1033 30.5 862 25.45 -5.9 21.4 82 -8.4 16.8
05:15 1033 30.5 862 25.45 -5.7 21.7 80 -8.7 16.4
05:20 1033 30.5 862 25.45 -5.6 22 79 -8.6 16.5
05:25 1033 30.5 862 25.45 -5.6 22 79 -8.7 16.3
05:30 1033 30.5 862 25.45 -6.1 21.1 78 -9.3 15.2
05:35 1033 30.5 862 25.45 -6.1 20.9 77 -9.5 14.8
05:40 1033 30.5 862 25.45 -5.5 22.1 77 -8.9 16
05:45 1033 30.5 862 25.45 -5.4 22.3 76 -8.9 15.9
05:50 1033 30.5 862 25.45 -5.5 22.1 76 -9.1 15.6
05:55 1033 30.5 862 25.45 -5.6 22 75 -9.3 15.3
06:00 1033 30.5 862 25.45 -5.4 22.2 73 -9.6 14.8
06:05 1033 30.5 862 25.45 -5.5 22.1 75 -9.4 15.2
06:10 1033 30.5 862 25.45 -5.3 22.5 73 -9.4 15.1
06:15 1033 30.5 862 25.45 -5.3 22.4 73 -9.4 15.1
06:20 1033 30.5 862 25.45 -5.5 22.1 73 -9.5 14.9
06:25 1033 30.5 862 25.45 -5.5 22.1 72 -9.7 14.5
06:30 1033 30.5 862 25.45 -5.6 22 72 -9.9 14.2
06:35 1033 30.5 862 25.45 -5.9 21.4 72 -10.1 13.8
06:40 1033 30.5 862 25.45 -6.3 20.7 74 -10.1 13.8
06:45 1033 30.5 862 25.45 -6.7 19.9 77 -10.2 13.7
06:50 1033 30.5 862 25.45 -7 19.4 78 -10.2 13.7
06:55 1033 30.5 862 25.45 -6.8 19.7 79 -10 14.1
07:00 1033 30.5 862 25.45 -6.6 20.1 78 -9.8 14.3
07:05 1033 30.5 862 25.45 -6.6 20.2 78 -9.8 14.4
07:10 1033 30.5 862 25.45 -6.5 20.3 77 -9.8 14.3
07:15 1033 30.5 862 25.45 -6.2 20.8 75 -9.9 14.1
07:20 1033 30.5 862 25.45 -6.2 20.9 73 -10.2 13.7
07:25 1033 30.5 862 25.45 -7 19.4 81 -9.8 14.4
07:30 1033 30.5 862 25.45 -7 19.4 80 -9.9 14.2
07:35 1033 30.5 862 25.45 -6.5 20.2 79 -9.6 14.8
07:40 1033 30.5 862 25.45 -6.6 20.1 80 -9.5 15
07:45 1033 30.5 862 25.45 -6.5 20.4 79 -9.5 14.8
07:50 1033 30.5 862 25.45 -6.3 20.6 78 -9.5 15
07:55 1033 30.5 862 25.45 -6.3 20.6 78 -9.5 14.9
08:00 1033 30.5 862 25.45 -6.1 21.1 77 -9.5 14.8
08:05 1033 30.5 862 25.45 -5.8 21.5 77 -9.3 15.2
08:10 1033 30.5 862 25.45 -5.9 21.4 76 -9.4 15
08:15 1033 30.5 862 25.45 -5.8 21.6 76 -9.3 15.2
08:20 1033 30.5 862 25.45 -5.8 21.5 78 -9.1 15.7
08:25 1033 30.5 862 25.45 -5.4 22.3 75 -9.2 15.4
08:30 1033 30.5 862 25.45 -5.5 22.1 74 -9.4 15.1
08:35 1033 30.5 862 25.45 -5.9 21.4 76 -9.5 14.9
08:40 1033 30.5 862 25.45 -5.6 21.9 75 -9.4 15.1
08:45 1033 30.5 862 25.45 -5.2 22.6 73 -9.3 15.2
08:50 1033 30.5 862 25.45 -5.6 21.9 75 -9.4 15.1
08:55 1033 30.5 862 25.45 -5.6 21.9 74 -9.5 14.9
09:00 1033 30.5 862 25.45 -5.2 22.6 73 -9.3 15.3
09:05 1033 30.5 862 25.45 -4.5 23.9 70 -9.1 15.7
09:10 1033 30.5 862 25.45 -3.7 25.3 68 -8.8 16.2
09:15 1033 30.5 862 25.45 -4.3 24.2 72 -8.6 16.5
09:20 1033 30.5 862 25.45 -4.6 23.8 72 -9 15.9
09:25 1033 30.5 862 25.45 -4.2 24.4 70 -8.9 15.9
09:30 1033 30.5 862 25.45 -3.7 25.3 68 -8.8 16.1
09:35 1033 30.5 862 25.45 -3.2 26.3 66 -8.7 16.3
09:40 1033 30.5 862 25.45 -2.5 27.5 63 -8.5 16.6
09:45 1033 30.5 862 25.45 -1.8 28.7 61 -8.3 17.1
09:50 1033 30.5 862 25.45 -1.3 29.6 59 -8.3 17
09:55 1033 30.5 862 25.45 -0.9 30.3 58 -8.3 17.1
10:00 1033 30.5 862 25.45 -0.6 31 57 -8.1 17.5
10:05 1033 30.5 862 25.45 -0.4 31.4 56 -8.1 17.5
10:10 1033 30.5 862 25.45 0.1 32.2 53 -8.2 17.2
10:15 1033 30.5 862 25.45 0.5 32.8 54 -7.8 18
10:20 1033 30.5 862 25.45 0.3 32.6 54 -7.8 17.9
10:25 1033 30.5 862 25.45 0.2 32.3 54 -8 17.6
10:30 1033 30.5 862 25.45 -0.5 31 57 -8.1 17.4
10:35 1033 30.5 862 25.45 -0.8 30.6 57 -8.2 17.3
10:40 1033 30.5 862 25.45 -0.4 31.4 56 -8.1 17.4
10:45 1033 30.5 862 25.45 -0.2 31.6 56 -8 17.6
10:50 1033 30.5 862 25.45 -0.5 31.1 58 -7.8 17.9
10:55 1033 30.5 862 25.45 -0.9 30.4 57 -8.3 17.1
11:00 1033 30.5 862 25.45 -1 30.2 58 -8.1 17.4
11:05 1033 30.5 862 25.45 -0.3 31.5 56 -8.1 17.4
11:10 1033 30.5 862 25.45 0.3 32.6 54 -8 17.6
11:15 1033 30.5 862 25.45 0.7 33.2 54 -7.6 18.4
11:20 1033 30.5 862 25.45 0.8 33.4 53 -7.7 18.1
11:25 1033 30.5 862 25.45 0.5 32.9 54 -7.8 17.9
11:30 1033 30.5 862 25.45 0 32.1 56 -7.8 17.9
11:35 1033 30.5 862 25.45 0.4 32.7 56 -7.4 18.7
11:40 1033 30.5 862 25.45 0.5 32.9 53 -7.9 17.7
11:45 1033 30.5 862 25.45 0.9 33.6 52 -8 17.7
11:50 1033 30.5 862 25.45 0.7 33.2 54 -7.7 18.2
11:55 1033 30.5 862 25.45 0.7 33.2 51 -8.2 17.2
12:00 1032 30.47 862 25.45 0.8 33.4 52 -7.9 17.8
12:05 1032 30.47 862 25.45 0.9 33.5 51 -8.2 17.3
12:10 1032 30.47 862 25.45 1.3 34.3 49 -8.3 17
12:15 1032 30.47 862 25.45 1.7 35.1 48 -8.1 17.4
12:20 1032 30.47 861 25.43 1.8 35.3 47 -8.3 17
12:25 1032 30.47 861 25.43 1.4 34.5 48 -8.4 16.9
12:30 1032 30.47 861 25.43 1.3 34.3 49 -8.2 17.2
12:35 1032 30.47 861 25.43 1.3 34.4 50 -8 17.6
12:40 1032 30.47 861 25.43 1.6 34.9 47 -8.5 16.7
12:45 1032 30.47 861 25.43 1.5 34.6 50 -8 17.6
12:50 1032 30.47 861 25.43 1.7 35 47 -8.4 17
12:55 1032 30.47 861 25.43 1.6 34.9 48 -8.3 17.1
13:00 1032 30.47 861 25.43 1.7 35.1 47 -8.4 16.9
13:05 1032 30.47 861 25.43 1.7 35 49 -8 17.6
13:10 1032 30.47 861 25.43 1.7 35 48 -8.3 17.1
13:15 1032 30.47 861 25.43 1.4 34.6 48 -8.3 17
13:20 1032 30.47 861 25.43 1.6 34.9 49 -8 17.6
13:25 1032 30.47 861 25.43 2 35.6 48 -8 17.7
13:30 1032 30.47 861 25.43 2.1 35.8 47 -8 17.6
13:35 1031 30.45 861 25.43 1.6 34.9 47 -8.5 16.8
13:40 1031 30.45 861 25.43 1.4 34.4 49 -8.1 17.4
13:45 1031 30.45 861 25.43 1.4 34.6 49 -8.2 17.3
13:50 1031 30.45 861 25.43 1.4 34.5 49 -8.1 17.4
13:55 1031 30.45 861 25.43 1.7 35.1 48 -8.1 17.5
14:00 1031 30.45 861 25.43 1.9 35.4 47 -8.2 17.3
14:05 1031 30.45 861 25.43 1.5 34.7 49 -8.1 17.4
14:10 1031 30.45 861 25.43 1.4 34.5 47 -8.7 16.3
14:15 1031 30.45 861 25.43 1.6 34.9 48 -8.3 17.1
14:20 1031 30.45 861 25.43 1.5 34.8 47 -8.7 16.4
14:25 1031 30.45 861 25.43 1.6 34.9 47 -8.6 16.6
14:30 1031 30.45 860 25.4 1.7 35 47 -8.5 16.7
14:35 1031 30.45 860 25.4 1.6 34.9 48 -8.3 17
14:40 1031 30.45 860 25.4 1.9 35.4 46 -8.6 16.6
14:45 1031 30.45 860 25.4 2.3 36.1 45 -8.5 16.8
14:50 1031 30.45 860 25.4 2.3 36.1 46 -8.3 17
14:55 1031 30.45 860 25.4 2.3 36.1 46 -8.2 17.3
15:00 1031 30.45 860 25.4 2 35.6 48 -7.9 17.8
15:05 1031 30.45 860 25.4 2.3 36.1 46 -8.3 17
15:10 1031 30.45 860 25.4 2.7 36.8 44 -8.4 16.9
15:15 1031 30.45 860 25.4 3 37.4 43 -8.4 16.9
15:20 1031 30.45 860 25.4 3 37.4 43 -8.3 17
15:25 1031 30.45 860 25.4 2.8 37 46 -7.8 17.9
15:30 1031 30.45 860 25.4 2.6 36.6 46 -7.8 17.9
15:35 1031 30.45 860 25.4 2.4 36.3 49 -7.4 18.7
15:40 1031 30.45 860 25.4 2 35.6 51 -7 19.4
15:45 1031 30.45 860 25.4 1.8 35.2 51 -7.3 18.9
15:50 1031 30.45 860 25.4 1.8 35.2 53 -6.9 19.6
15:55 1031 30.45 860 25.4 1.3 34.4 54 -6.9 19.5
16:00 1031 30.45 860 25.4 1.1 34.1 53 -7.3 18.9
16:05 1031 30.45 860 25.4 1 33.7 55 -7.2 19.1
16:10 1031 30.45 860 25.4 1 33.8 54 -7.4 18.7
16:15 1031 30.45 860 25.4 0.6 33.2 56 -7.1 19.2
16:20 1031 30.45 860 25.4 0.1 32.2 59 -7 19.4
16:25 1031 30.45 860 25.4 0.2 32.4 57 -7.3 18.9
16:30 1031 30.45 860 25.4 -0.1 31.9 59 -7.2 19
16:35 1031 30.45 860 25.4 -0.6 30.9 61 -7.3 18.9
16:40 1031 30.45 860 25.4 -0.9 30.4 61 -7.5 18.4
16:45 1031 30.45 860 25.4 -1.2 29.8 63 -7.4 18.7
16:50 1031 30.45 860 25.4 -1.3 29.6 65 -7.1 19.2
16:55 1031 30.45 860 25.4 -1.3 29.6 64 -7.3 18.9
17:00 1031 30.45 860 25.4 -1.6 29.2 66 -7.1 19.2
17:05 1031 30.45 860 25.4 -1.5 29.3 64 -7.5 18.5
17:10 1031 30.45 860 25.4 -1.3 29.7 65 -7.1 19.2
17:15 1031 30.45 860 25.4 -1.7 28.9 66 -7.2 19
17:20 1031 30.45 860 25.4 -2.2 28.1 68 -7.2 19
17:25 1031 30.45 860 25.4 -2.2 28 68 -7.3 18.9
17:30 1031 30.45 860 25.4 -2.1 28.2 69 -7.1 19.3
17:35 1031 30.45 860 25.4 -2.3 27.9 70 -7.1 19.3
17:40 1031 30.45 860 25.4 -2.1 28.2 70 -6.8 19.7
17:45 1031 30.45 860 25.4 -1.9 28.5 71 -6.5 20.3
17:50 1031 30.45 860 25.4 -1.9 28.6 71 -6.4 20.4
17:55 1031 30.45 860 25.4 -1.8 28.8 70 -6.5 20.3
18:00 1031 30.45 860 25.4 -1.5 29.3 69 -6.5 20.3
18:05 1031 30.45 860 25.4 -1.4 29.4 69 -6.5 20.4
18:10 1031 30.45 860 25.4 -1.8 28.8 71 -6.4 20.6
18:15 1031 30.45 860 25.4 -1.8 28.8 71 -6.4 20.4
18:20 1031 30.45 860 25.4 -1.7 28.9 72 -6.1 21.1
18:25 1031 30.45 860 25.4 -1.8 28.7 72 -6.2 20.8
18:30 1031 30.45 860 25.4 -1.2 29.8 69 -6.1 21
18:35 1031 30.45 860 25.4 -1.2 29.8 69 -6.2 20.8
18:40 1031 30.45 860 25.4 -1.4 29.5 70 -6.1 21
18:45 1031 30.45 860 25.4 -1.7 29 72 -6.1 21
18:50 1031 30.45 860 25.4 -2.1 28.2 72 -6.5 20.3
18:55 1031 30.45 860 25.4 -2.4 27.7 74 -6.3 20.6
19:00 1031 30.45 860 25.4 -2.6 27.2 76 -6.4 20.5
19:05 1031 30.45 860 25.4 -2.5 27.5 75 -6.3 20.7
19:10 1031 30.45 860 25.4 -2.3 27.9 73 -6.5 20.4
19:15 1031 30.45 860 25.4 -2.1 28.2 73 -6.3 20.6
19:20 1031 30.45 860 25.4 -2.1 28.2 72 -6.5 20.4
19:25 1031 30.45 860 25.4 -2.3 27.8 74 -6.3 20.7
19:30 1031 30.45 860 25.4 -2.6 27.3 74 -6.6 20.1
19:35 1031 30.45 860 25.4 -2.7 27.1 74 -6.8 19.8
19:40 1031 30.45 860 25.4 -2.7 27.1 73 -6.9 19.5
19:45 1031 30.45 860 25.4 -2.5 27.5 73 -6.7 20
19:50 1031 30.45 860 25.4 -2.4 27.7 71 -6.9 19.6
19:55 1031 30.45 860 25.4 -2.3 27.8 71 -7 19.5
20:00 1031 30.45 860 25.4 -2.7 27.1 74 -6.8 19.8
20:05 1031 30.45 860 25.4 -3 26.5 75 -6.9 19.5
20:10 1031 30.45 860 25.4 -2.7 27.1 74 -6.8 19.8
20:15 1031 30.45 860 25.4 -2.4 27.8 72 -6.7 19.9
20:20 1031 30.45 860 25.4 -2.4 27.6 71 -7 19.5
20:25 1031 30.45 860 25.4 -3.1 26.4 75 -7 19.4
20:30 1031 30.45 860 25.4 -2.8 26.9 74 -6.8 19.8
20:35 1031 30.45 860 25.4 -2.5 27.5 72 -6.8 19.8
20:40 1031 30.45 860 25.4 -2.4 27.6 72 -6.9 19.6
20:45 1031 30.45 860 25.4 -2.9 26.8 69 -7.7 18.1
20:50 1031 30.45 860 25.4 -3 26.7 74 -7 19.4
20:55 1031 30.45 860 25.4 -2.6 27.3 72 -7 19.4
21:00 1031 30.45 860 25.4 -2.1 28.2 67 -7.4 18.6
21:05 1031 30.45 860 25.4 -3.1 26.4 74 -7 19.4
21:10 1031 30.45 860 25.4 -3.3 26.1 75 -7.1 19.2
21:15 1031 30.45 860 25.4 -3.5 25.8 75 -7.3 18.8
21:20 1031 30.45 860 25.4 -3.2 26.2 74 -7.3 18.8
21:25 1031 30.45 860 25.4 -2.9 26.7 72 -7.2 19
21:30 1031 30.45 860 25.4 -2.7 27.1 73 -6.9 19.5
21:35 1031 30.45 860 25.4 -2.5 27.6 69 -7.4 18.7
21:40 1031 30.45 860 25.4 -2.7 27.1 72 -7 19.3
21:45 1031 30.45 860 25.4 -2.9 26.7 71 -7.6 18.4
21:50 1031 30.45 860 25.4 -3.3 26.1 74 -7.4 18.7
21:55 1031 30.45 860 25.4 -3.5 25.8 73 -7.6 18.3
22:00 1031 30.45 860 25.4 -2.8 26.9 67 -8.2 17.2
22:05 1031 30.45 860 25.4 -2.2 28 66 -7.8 17.9
22:10 1031 30.45 860 25.4 -2.1 28.2 65 -7.9 17.7
22:15 1031 30.45 860 25.4 -2.1 28.2 65 -7.9 17.8
22:20 1031 30.45 860 25.4 -2 28.5 63 -8.1 17.4
22:25 1031 30.45 860 25.4 -2.4 27.7 65 -8 17.6
22:30 1031 30.45 860 25.4 -3.3 26.1 67 -8.5 16.8
22:35 1031 30.45 860 25.4 -4 24.8 69 -8.9 16
22:40 1031 30.45 860 25.4 -4.5 24 71 -9 15.8
22:45 1031 30.45 860 25.4 -5 23 74 -8.9 15.9
22:50 1031 30.45 860 25.4 -4.6 23.8 75 -8.4 16.9
22:55 1031 30.45 860 25.4 -3.9 25 70 -8.5 16.7
23:00 1031 30.45 860 25.4 -3.3 26 69 -8.3 17.1
23:05 1031 30.45 860 25.4 -3.4 25.9 72 -7.7 18.1
23:10 1031 30.45 860 25.4 -3.8 25.2 73 -8 17.6
23:15 1031 30.45 860 25.4 -3.5 25.8 72 -7.7 18.1
23:20 1031 30.45 860 25.4 -3.5 25.8 72 -7.8 17.9
23:25 1031 30.45 860 25.4 -3.6 25.5 70 -8.3 17.1
23:30 1031 30.45 860 25.4 -3.6 25.6 69 -8.4 16.8
23:35 1031 30.45 860 25.4 -3.4 25.9 70 -8.1 17.4
23:40 1031 30.45 860 25.4 -3.1 26.4 69 -8 17.6
23:45 1031 30.45 860 25.4 -3 26.6 67 -8.2 17.2
23:50 1031 30.45 860 25.4 -3.4 25.9 69 -8.2 17.2
23:55 1031 30.45 860 25.4 -4.2 24.5 71 -8.6 16.5
24:00 1031 30.45 860 25.4 -4.4 24.1 72 -8.7 16.3